ホーチミン の空港の天気 - METARとTAF

タンソンニャット国際空港 (ホーチミン) ( VVTS / SGN ) - ベトナム ホーチミン市
飛行場実況気象(Metar)
観測時間11/30 23:30 ICT (11/30 16:30 UTC)
風向・風速東南東 3m/s
視程10km以上
天気現象
少しの雲 雲底高度 520m
全天の4割程度の雲 雲底高度 1520m
気温28℃
湿度89%
気圧1009hPa
METARVVTS 301630Z 11006KT 080V150 9999 FEW017 SCT050 28/26 Q1009 NOSIG
過去の天気等 Google飛行場航空写真 Wunderground天気予報

過去48時間のMETAR

飛行場予報(TAF)
発表時間: 11/30 18:00 ICT (11/30 11:00 UTC)
予報対象時間: 30日19時 ICT ~ 2日1時 ICT
風向・風速不定 2m/s
視程10km以上
全天の4割程度の雲 雲底高度 520m
全天の4割程度の雲 雲底高度 1520m
TAF VVTS 301100Z 3012/0118 VRB03KT 9999 SCT017 SCT050